sensor_id;sensor_type;location;lat;lon;timestamp;temperature;humidity
32728;DHT22;55292;51.844;19.246;2023-06-22T00:02:16;19.20;99.90
32728;DHT22;55292;51.844;19.246;2023-06-22T00:07:19;19.00;99.90
32728;DHT22;55292;51.844;19.246;2023-06-22T00:12:22;18.90;99.90
32728;DHT22;55292;51.844;19.246;2023-06-22T00:17:25;19.00;99.90
32728;DHT22;55292;51.844;19.246;2023-06-22T00:22:28;19.10;99.90
32728;DHT22;55292;51.844;19.246;2023-06-22T00:27:31;19.10;99.90
32728;DHT22;55292;51.844;19.246;2023-06-22T00:32:33;19.10;99.90
32728;DHT22;55292;51.844;19.246;2023-06-22T00:37:37;19.10;99.90
32728;DHT22;55292;51.844;19.246;2023-06-22T00:42:41;19.00;99.90
32728;DHT22;55292;51.844;19.246;2023-06-22T00:47:44;19.00;99.90
32728;DHT22;55292;51.844;19.246;2023-06-22T00:52:53;18.90;99.90
32728;DHT22;55292;51.844;19.246;2023-06-22T00:57:56;18.80;99.90
32728;DHT22;55292;51.844;19.246;2023-06-22T01:02:59;18.60;99.90
32728;DHT22;55292;51.844;19.246;2023-06-22T01:08:29;18.30;99.90
32728;DHT22;55292;51.844;19.246;2023-06-22T01:19:15;17.70;99.90
32728;DHT22;55292;51.844;19.246;2023-06-22T01:24:27;17.70;99.90
32728;DHT22;55292;51.844;19.246;2023-06-22T01:29:33;17.60;99.90
32728;DHT22;55292;51.844;19.246;2023-06-22T01:34:38;17.60;99.90
32728;DHT22;55292;51.844;19.246;2023-06-22T01:39:42;17.50;99.90
32728;DHT22;55292;51.844;19.246;2023-06-22T01:44:45;17.30;99.90
32728;DHT22;55292;51.844;19.246;2023-06-22T01:49:49;17.20;99.90
32728;DHT22;55292;51.844;19.246;2023-06-22T01:54:55;17.20;99.90
32728;DHT22;55292;51.844;19.246;2023-06-22T02:00:01;17.20;99.90
32728;DHT22;55292;51.844;19.246;2023-06-22T02:05:06;17.10;99.90
32728;DHT22;55292;51.844;19.246;2023-06-22T02:10:11;17.10;99.90
32728;DHT22;55292;51.844;19.246;2023-06-22T02:15:16;17.10;99.90
32728;DHT22;55292;51.844;19.246;2023-06-22T02:20:21;17.10;99.90
32728;DHT22;55292;51.844;19.246;2023-06-22T02:25:25;17.20;99.90
32728;DHT22;55292;51.844;19.246;2023-06-22T02:30:28;17.10;99.90
32728;DHT22;55292;51.844;19.246;2023-06-22T02:35:31;17.10;99.90
32728;DHT22;55292;51.844;19.246;2023-06-22T02:40:34;17.30;99.90
32728;DHT22;55292;51.844;19.246;2023-06-22T02:45:37;17.30;99.90
32728;DHT22;55292;51.844;19.246;2023-06-22T02:50:39;17.40;99.90
32728;DHT22;55292;51.844;19.246;2023-06-22T02:55:42;17.50;99.90
32728;DHT22;55292;51.844;19.246;2023-06-22T03:00:44;17.70;99.90
32728;DHT22;55292;51.844;19.246;2023-06-22T03:05:47;18.00;99.90
32728;DHT22;55292;51.844;19.246;2023-06-22T03:10:50;18.30;99.90
32728;DHT22;55292;51.844;19.246;2023-06-22T03:15:52;18.80;99.90
32728;DHT22;55292;51.844;19.246;2023-06-22T03:20:55;19.50;99.90
32728;DHT22;55292;51.844;19.246;2023-06-22T03:25:59;20.10;99.90
32728;DHT22;55292;51.844;19.246;2023-06-22T03:31:01;20.80;99.90
32728;DHT22;55292;51.844;19.246;2023-06-22T03:36:06;21.40;99.90
32728;DHT22;55292;51.844;19.246;2023-06-22T03:41:09;22.40;99.90
32728;DHT22;55292;51.844;19.246;2023-06-22T03:46:12;22.80;99.90
32728;DHT22;55292;51.844;19.246;2023-06-22T03:51:15;23.40;99.90
32728;DHT22;55292;51.844;19.246;2023-06-22T03:56:17;24.00;99.90
32728;DHT22;55292;51.844;19.246;2023-06-22T04:01:23;24.30;99.90
32728;DHT22;55292;51.844;19.246;2023-06-22T04:06:25;24.40;99.90
32728;DHT22;55292;51.844;19.246;2023-06-22T04:11:28;24.90;99.90
32728;DHT22;55292;51.844;19.246;2023-06-22T04:16:31;25.40;99.90
32728;DHT22;55292;51.844;19.246;2023-06-22T04:21:33;26.20;99.90
32728;DHT22;55292;51.844;19.246;2023-06-22T04:26:36;26.50;99.90
32728;DHT22;55292;51.844;19.246;2023-06-22T04:31:39;26.10;99.90
32728;DHT22;55292;51.844;19.246;2023-06-22T04:36:42;26.00;99.90
32728;DHT22;55292;51.844;19.246;2023-06-22T04:41:45;25.90;99.90
32728;DHT22;55292;51.844;19.246;2023-06-22T04:46:47;26.90;99.90
32728;DHT22;55292;51.844;19.246;2023-06-22T04:51:56;27.10;97.90
32728;DHT22;55292;51.844;19.246;2023-06-22T04:57:02;26.90;99.60
32728;DHT22;55292;51.844;19.246;2023-06-22T05:02:05;27.80;96.70
32728;DHT22;55292;51.844;19.246;2023-06-22T05:07:08;27.50;96.50
32728;DHT22;55292;51.844;19.246;2023-06-22T05:12:11;27.80;95.80
32728;DHT22;55292;51.844;19.246;2023-06-22T05:17:14;28.00;94.20
32728;DHT22;55292;51.844;19.246;2023-06-22T05:22:17;27.80;93.90
32728;DHT22;55292;51.844;19.246;2023-06-22T05:27:20;28.40;92.00
32728;DHT22;55292;51.844;19.246;2023-06-22T05:32:22;28.40;90.40
32728;DHT22;55292;51.844;19.246;2023-06-22T05:37:26;29.00;90.00
32728;DHT22;55292;51.844;19.246;2023-06-22T05:42:28;29.20;90.30
32728;DHT22;55292;51.844;19.246;2023-06-22T05:47:31;29.10;89.40
32728;DHT22;55292;51.844;19.246;2023-06-22T05:52:34;28.10;88.50
32728;DHT22;55292;51.844;19.246;2023-06-22T05:57:36;27.90;91.70
32728;DHT22;55292;51.844;19.246;2023-06-22T06:02:39;28.40;89.00
32728;DHT22;55292;51.844;19.246;2023-06-22T06:07:47;28.80;87.10
32728;DHT22;55292;51.844;19.246;2023-06-22T06:12:49;26.60;92.90
32728;DHT22;55292;51.844;19.246;2023-06-22T06:17:52;25.30;95.30
32728;DHT22;55292;51.844;19.246;2023-06-22T06:22:55;24.70;99.20
32728;DHT22;55292;51.844;19.246;2023-06-22T06:27:58;24.60;99.90
32728;DHT22;55292;51.844;19.246;2023-06-22T06:33:01;24.10;99.90
32728;DHT22;55292;51.844;19.246;2023-06-22T06:38:04;24.10;99.90
32728;DHT22;55292;51.844;19.246;2023-06-22T06:43:06;23.80;99.90
32728;DHT22;55292;51.844;19.246;2023-06-22T06:48:09;24.50;99.90
32728;DHT22;55292;51.844;19.246;2023-06-22T06:53:11;24.40;99.90
32728;DHT22;55292;51.844;19.246;2023-06-22T06:58:14;24.50;99.90
32728;DHT22;55292;51.844;19.246;2023-06-22T07:03:17;24.60;99.20
32728;DHT22;55292;51.844;19.246;2023-06-22T07:08:20;24.40;99.90
32728;DHT22;55292;51.844;19.246;2023-06-22T07:13:22;24.60;99.90
32728;DHT22;55292;51.844;19.246;2023-06-22T07:18:25;24.80;97.60
32728;DHT22;55292;51.844;19.246;2023-06-22T07:23:28;24.70;96.70
32728;DHT22;55292;51.844;19.246;2023-06-22T07:28:31;25.00;96.20
32728;DHT22;55292;51.844;19.246;2023-06-22T07:33:39;25.20;95.30
32728;DHT22;55292;51.844;19.246;2023-06-22T07:38:41;25.10;92.80
32728;DHT22;55292;51.844;19.246;2023-06-22T07:43:44;24.90;92.20
32728;DHT22;55292;51.844;19.246;2023-06-22T07:48:46;25.00;91.40
32728;DHT22;55292;51.844;19.246;2023-06-22T07:53:49;25.10;92.80
32728;DHT22;55292;51.844;19.246;2023-06-22T07:58:52;24.90;89.50
32728;DHT22;55292;51.844;19.246;2023-06-22T08:03:55;24.80;88.20
32728;DHT22;55292;51.844;19.246;2023-06-22T08:08:58;24.80;85.30
32728;DHT22;55292;51.844;19.246;2023-06-22T08:14:01;24.70;84.80
32728;DHT22;55292;51.844;19.246;2023-06-22T08:19:04;24.90;83.40
32728;DHT22;55292;51.844;19.246;2023-06-22T08:24:06;25.10;82.90
32728;DHT22;55292;51.844;19.246;2023-06-22T08:29:10;25.00;83.70
32728;DHT22;55292;51.844;19.246;2023-06-22T08:34:13;25.00;80.40
32728;DHT22;55292;51.844;19.246;2023-06-22T08:39:20;25.30;74.10
32728;DHT22;55292;51.844;19.246;2023-06-22T08:44:22;25.30;77.70
32728;DHT22;55292;51.844;19.246;2023-06-22T08:49:25;25.50;78.20
32728;DHT22;55292;51.844;19.246;2023-06-22T08:54:28;25.50;77.00
32728;DHT22;55292;51.844;19.246;2023-06-22T08:59:30;25.60;80.10
32728;DHT22;55292;51.844;19.246;2023-06-22T09:04:33;25.90;77.80
32728;DHT22;55292;51.844;19.246;2023-06-22T09:09:37;25.70;75.80
32728;DHT22;55292;51.844;19.246;2023-06-22T09:14:40;25.80;74.90
32728;DHT22;55292;51.844;19.246;2023-06-22T09:19:42;25.70;75.10
32728;DHT22;55292;51.844;19.246;2023-06-22T09:24:45;26.10;74.40
32728;DHT22;55292;51.844;19.246;2023-06-22T09:29:53;26.00;71.40
32728;DHT22;55292;51.844;19.246;2023-06-22T09:34:55;26.20;74.60
32728;DHT22;55292;51.844;19.246;2023-06-22T09:39:58;26.20;74.50
32728;DHT22;55292;51.844;19.246;2023-06-22T09:45:01;26.50;75.00
32728;DHT22;55292;51.844;19.246;2023-06-22T09:50:05;26.60;69.50
32728;DHT22;55292;51.844;19.246;2023-06-22T09:55:08;26.40;67.60
32728;DHT22;55292;51.844;19.246;2023-06-22T10:00:11;26.60;67.60
32728;DHT22;55292;51.844;19.246;2023-06-22T10:05:17;26.70;71.50
32728;DHT22;55292;51.844;19.246;2023-06-22T10:10:20;26.60;68.60
32728;DHT22;55292;51.844;19.246;2023-06-22T10:15:24;26.90;70.90
32728;DHT22;55292;51.844;19.246;2023-06-22T10:20:26;26.80;68.90
32728;DHT22;55292;51.844;19.246;2023-06-22T10:25:30;26.80;66.90
32728;DHT22;55292;51.844;19.246;2023-06-22T10:30:33;26.90;70.20
32728;DHT22;55292;51.844;19.246;2023-06-22T10:35:36;27.20;70.50
32728;DHT22;55292;51.844;19.246;2023-06-22T10:40:42;26.80;69.40
32728;DHT22;55292;51.844;19.246;2023-06-22T10:45:45;27.20;66.40
32728;DHT22;55292;51.844;19.246;2023-06-22T10:50:48;27.10;66.50
32728;DHT22;55292;51.844;19.246;2023-06-22T10:55:50;27.10;66.20
32728;DHT22;55292;51.844;19.246;2023-06-22T11:00:59;27.10;65.50
32728;DHT22;55292;51.844;19.246;2023-06-22T11:06:01;27.10;67.00
32728;DHT22;55292;51.844;19.246;2023-06-22T11:11:04;27.10;65.60
32728;DHT22;55292;51.844;19.246;2023-06-22T11:16:07;27.00;65.20
32728;DHT22;55292;51.844;19.246;2023-06-22T11:21:09;27.00;65.90
32728;DHT22;55292;51.844;19.246;2023-06-22T11:26:12;27.20;68.30
32728;DHT22;55292;51.844;19.246;2023-06-22T11:31:15;27.20;68.30
32728;DHT22;55292;51.844;19.246;2023-06-22T11:36:29;27.40;66.40
32728;DHT22;55292;51.844;19.246;2023-06-22T11:41:31;27.80;68.30
32728;DHT22;55292;51.844;19.246;2023-06-22T11:46:34;28.00;66.50
32728;DHT22;55292;51.844;19.246;2023-06-22T11:51:37;27.90;67.70
32728;DHT22;55292;51.844;19.246;2023-06-22T11:56:40;28.10;64.60
32728;DHT22;55292;51.844;19.246;2023-06-22T12:01:42;27.90;61.60
32728;DHT22;55292;51.844;19.246;2023-06-22T12:06:45;27.90;60.80
32728;DHT22;55292;51.844;19.246;2023-06-22T12:11:48;28.20;63.40
32728;DHT22;55292;51.844;19.246;2023-06-22T12:16:50;28.00;59.50
32728;DHT22;55292;51.844;19.246;2023-06-22T12:21:53;27.90;62.20
32728;DHT22;55292;51.844;19.246;2023-06-22T12:26:55;27.90;59.40
32728;DHT22;55292;51.844;19.246;2023-06-22T12:31:58;28.00;60.00
32728;DHT22;55292;51.844;19.246;2023-06-22T12:37:01;28.10;59.20
32728;DHT22;55292;51.844;19.246;2023-06-22T12:42:04;28.40;59.70
32728;DHT22;55292;51.844;19.246;2023-06-22T12:47:08;28.30;56.50
32728;DHT22;55292;51.844;19.246;2023-06-22T12:52:11;28.00;55.50
32728;DHT22;55292;51.844;19.246;2023-06-22T12:57:14;28.00;57.10
32728;DHT22;55292;51.844;19.246;2023-06-22T13:02:17;28.40;57.50
32728;DHT22;55292;51.844;19.246;2023-06-22T13:07:20;28.40;55.00
32728;DHT22;55292;51.844;19.246;2023-06-22T13:12:25;28.20;53.80
32728;DHT22;55292;51.844;19.246;2023-06-22T13:17:27;28.20;54.20
32728;DHT22;55292;51.844;19.246;2023-06-22T13:22:32;28.30;56.60
32728;DHT22;55292;51.844;19.246;2023-06-22T13:27:35;28.40;55.80
32728;DHT22;55292;51.844;19.246;2023-06-22T13:32:37;28.30;53.70
32728;DHT22;55292;51.844;19.246;2023-06-22T13:37:40;28.50;55.20
32728;DHT22;55292;51.844;19.246;2023-06-22T13:42:42;28.70;55.90
32728;DHT22;55292;51.844;19.246;2023-06-22T13:47:45;28.30;55.20
32728;DHT22;55292;51.844;19.246;2023-06-22T13:52:48;28.30;56.60
32728;DHT22;55292;51.844;19.246;2023-06-22T13:57:50;28.50;55.60
32728;DHT22;55292;51.844;19.246;2023-06-22T14:02:54;28.60;53.00
32728;DHT22;55292;51.844;19.246;2023-06-22T14:07:57;28.80;54.30
32728;DHT22;55292;51.844;19.246;2023-06-22T14:12:59;29.30;53.90
32728;DHT22;55292;51.844;19.246;2023-06-22T14:18:05;29.10;51.90
32728;DHT22;55292;51.844;19.246;2023-06-22T14:23:08;29.40;53.30
32728;DHT22;55292;51.844;19.246;2023-06-22T14:28:10;29.10;54.10
32728;DHT22;55292;51.844;19.246;2023-06-22T14:33:13;29.10;51.40
32728;DHT22;55292;51.844;19.246;2023-06-22T14:38:16;29.20;52.10
32728;DHT22;55292;51.844;19.246;2023-06-22T14:43:19;29.40;52.70
32728;DHT22;55292;51.844;19.246;2023-06-22T14:48:21;29.60;55.10
32728;DHT22;55292;51.844;19.246;2023-06-22T14:53:24;29.50;51.00
32728;DHT22;55292;51.844;19.246;2023-06-22T14:58:26;29.00;51.90
32728;DHT22;55292;51.844;19.246;2023-06-22T15:03:34;29.10;52.30
32728;DHT22;55292;51.844;19.246;2023-06-22T15:08:42;29.20;53.40
32728;DHT22;55292;51.844;19.246;2023-06-22T15:13:44;28.90;53.30
32728;DHT22;55292;51.844;19.246;2023-06-22T15:18:47;28.70;52.30
32728;DHT22;55292;51.844;19.246;2023-06-22T15:23:51;28.80;52.00
32728;DHT22;55292;51.844;19.246;2023-06-22T15:28:53;28.90;53.70
32728;DHT22;55292;51.844;19.246;2023-06-22T15:33:57;28.80;54.70
32728;DHT22;55292;51.844;19.246;2023-06-22T15:38:59;28.70;54.60
32728;DHT22;55292;51.844;19.246;2023-06-22T15:44:02;28.30;56.50
32728;DHT22;55292;51.844;19.246;2023-06-22T15:49:05;28.30;56.90
32728;DHT22;55292;51.844;19.246;2023-06-22T15:54:08;28.10;56.70
32728;DHT22;55292;51.844;19.246;2023-06-22T15:59:10;28.10;58.00
32728;DHT22;55292;51.844;19.246;2023-06-22T16:04:13;28.30;59.00
32728;DHT22;55292;51.844;19.246;2023-06-22T16:09:16;28.40;57.80
32728;DHT22;55292;51.844;19.246;2023-06-22T16:14:18;28.30;58.30
32728;DHT22;55292;51.844;19.246;2023-06-22T16:19:21;28.20;58.30
32728;DHT22;55292;51.844;19.246;2023-06-22T16:24:23;28.10;58.50
32728;DHT22;55292;51.844;19.246;2023-06-22T16:29:26;27.90;58.40
32728;DHT22;55292;51.844;19.246;2023-06-22T16:34:29;27.70;58.10
32728;DHT22;55292;51.844;19.246;2023-06-22T16:39:32;27.70;59.40
32728;DHT22;55292;51.844;19.246;2023-06-22T16:44:34;27.50;58.70
32728;DHT22;55292;51.844;19.246;2023-06-22T16:49:37;27.40;59.60
32728;DHT22;55292;51.844;19.246;2023-06-22T16:54:41;28.60;58.70
32728;DHT22;55292;51.844;19.246;2023-06-22T17:00:02;28.80;55.50
32728;DHT22;55292;51.844;19.246;2023-06-22T17:05:10;29.30;55.50
32728;DHT22;55292;51.844;19.246;2023-06-22T17:10:14;28.90;55.00
32728;DHT22;55292;51.844;19.246;2023-06-22T17:15:18;29.40;54.80
32728;DHT22;55292;51.844;19.246;2023-06-22T17:20:22;30.20;54.70
32728;DHT22;55292;51.844;19.246;2023-06-22T17:25:27;29.40;55.20
32728;DHT22;55292;51.844;19.246;2023-06-22T17:30:31;29.50;54.00
32728;DHT22;55292;51.844;19.246;2023-06-22T17:35:45;29.90;54.20
32728;DHT22;55292;51.844;19.246;2023-06-22T17:40:49;29.90;56.30
32728;DHT22;55292;51.844;19.246;2023-06-22T17:45:51;29.80;54.80
32728;DHT22;55292;51.844;19.246;2023-06-22T17:51:00;29.50;54.30
32728;DHT22;55292;51.844;19.246;2023-06-22T17:56:03;29.20;55.40
32728;DHT22;55292;51.844;19.246;2023-06-22T18:01:05;29.30;54.60
32728;DHT22;55292;51.844;19.246;2023-06-22T18:06:09;28.60;56.40
32728;DHT22;55292;51.844;19.246;2023-06-22T18:11:12;28.10;57.80
32728;DHT22;55292;51.844;19.246;2023-06-22T18:16:15;27.80;58.20
32728;DHT22;55292;51.844;19.246;2023-06-22T18:21:18;27.40;59.40
32728;DHT22;55292;51.844;19.246;2023-06-22T18:26:23;27.30;61.20
32728;DHT22;55292;51.844;19.246;2023-06-22T18:31:26;26.80;70.40
32728;DHT22;55292;51.844;19.246;2023-06-22T18:36:49;26.10;73.60
32728;DHT22;55292;51.844;19.246;2023-06-22T18:41:53;25.30;71.40
32728;DHT22;55292;51.844;19.246;2023-06-22T18:47:03;23.80;81.00
32728;DHT22;55292;51.844;19.246;2023-06-22T18:57:25;21.70;90.20
32728;DHT22;55292;51.844;19.246;2023-06-22T19:02:57;20.90;89.20
32728;DHT22;55292;51.844;19.246;2023-06-22T19:08:01;20.30;95.50
32728;DHT22;55292;51.844;19.246;2023-06-22T19:18:25;19.20;99.90
32728;DHT22;55292;51.844;19.246;2023-06-22T19:23:29;19.00;99.90
32728;DHT22;55292;51.844;19.246;2023-06-22T19:28:34;18.40;99.90
32728;DHT22;55292;51.844;19.246;2023-06-22T19:33:46;18.40;99.90
32728;DHT22;55292;51.844;19.246;2023-06-22T19:38:48;18.20;99.90
32728;DHT22;55292;51.844;19.246;2023-06-22T19:43:51;17.70;99.90
32728;DHT22;55292;51.844;19.246;2023-06-22T19:48:55;17.40;99.90
32728;DHT22;55292;51.844;19.246;2023-06-22T19:54:06;17.50;99.90
32728;DHT22;55292;51.844;19.246;2023-06-22T19:59:14;17.40;99.90
32728;DHT22;55292;51.844;19.246;2023-06-22T20:04:18;17.00;99.90
32728;DHT22;55292;51.844;19.246;2023-06-22T20:09:21;16.70;99.90
32728;DHT22;55292;51.844;19.246;2023-06-22T20:14:29;16.50;99.90
32728;DHT22;55292;51.844;19.246;2023-06-22T20:19:38;16.20;99.90
32728;DHT22;55292;51.844;19.246;2023-06-22T20:24:47;16.00;99.90
32728;DHT22;55292;51.844;19.246;2023-06-22T20:29:50;15.70;99.90
32728;DHT22;55292;51.844;19.246;2023-06-22T20:34:52;15.60;99.90
32728;DHT22;55292;51.844;19.246;2023-06-22T20:39:56;15.90;99.90
32728;DHT22;55292;51.844;19.246;2023-06-22T20:44:58;15.70;99.90
32728;DHT22;55292;51.844;19.246;2023-06-22T20:56:17;15.70;99.90
32728;DHT22;55292;51.844;19.246;2023-06-22T21:01:19;15.50;99.90
32728;DHT22;55292;51.844;19.246;2023-06-22T21:06:24;15.20;99.90
32728;DHT22;55292;51.844;19.246;2023-06-22T21:11:26;15.20;99.90
32728;DHT22;55292;51.844;19.246;2023-06-22T21:16:29;15.30;99.90
32728;DHT22;55292;51.844;19.246;2023-06-22T21:21:31;15.30;99.90
32728;DHT22;55292;51.844;19.246;2023-06-22T21:26:36;15.10;99.90
32728;DHT22;55292;51.844;19.246;2023-06-22T21:31:39;14.80;99.90
32728;DHT22;55292;51.844;19.246;2023-06-22T21:36:41;14.60;99.90
32728;DHT22;55292;51.844;19.246;2023-06-22T21:41:44;14.60;99.90
32728;DHT22;55292;51.844;19.246;2023-06-22T21:46:47;14.20;99.90
32728;DHT22;55292;51.844;19.246;2023-06-22T21:51:49;14.10;99.90
32728;DHT22;55292;51.844;19.246;2023-06-22T21:56:52;14.30;99.90
32728;DHT22;55292;51.844;19.246;2023-06-22T22:01:54;14.70;99.90
32728;DHT22;55292;51.844;19.246;2023-06-22T22:06:57;15.00;99.90
32728;DHT22;55292;51.844;19.246;2023-06-22T22:12:03;14.70;99.90
32728;DHT22;55292;51.844;19.246;2023-06-22T22:17:07;14.60;99.90
32728;DHT22;55292;51.844;19.246;2023-06-22T22:22:11;14.70;99.90
32728;DHT22;55292;51.844;19.246;2023-06-22T22:27:14;14.40;99.90
32728;DHT22;55292;51.844;19.246;2023-06-22T22:32:17;14.20;99.90
32728;DHT22;55292;51.844;19.246;2023-06-22T22:37:20;14.20;99.90
32728;DHT22;55292;51.844;19.246;2023-06-22T22:42:22;14.30;99.90
32728;DHT22;55292;51.844;19.246;2023-06-22T22:47:25;14.30;99.90
32728;DHT22;55292;51.844;19.246;2023-06-22T22:52:29;14.20;99.90
32728;DHT22;55292;51.844;19.246;2023-06-22T22:57:36;14.20;99.90
32728;DHT22;55292;51.844;19.246;2023-06-22T23:02:39;14.70;99.90
32728;DHT22;55292;51.844;19.246;2023-06-22T23:07:43;14.90;99.90
32728;DHT22;55292;51.844;19.246;2023-06-22T23:12:45;14.70;99.90
32728;DHT22;55292;51.844;19.246;2023-06-22T23:17:50;14.70;99.90
32728;DHT22;55292;51.844;19.246;2023-06-22T23:22:54;14.50;99.90
32728;DHT22;55292;51.844;19.246;2023-06-22T23:27:59;14.40;99.90
32728;DHT22;55292;51.844;19.246;2023-06-22T23:33:02;14.60;99.90
32728;DHT22;55292;51.844;19.246;2023-06-22T23:38:05;14.30;99.90
32728;DHT22;55292;51.844;19.246;2023-06-22T23:43:10;14.10;99.90
32728;DHT22;55292;51.844;19.246;2023-06-22T23:48:13;14.30;99.90
32728;DHT22;55292;51.844;19.246;2023-06-22T23:53:16;14.30;99.90
32728;DHT22;55292;51.844;19.246;2023-06-22T23:58:18;14.80;99.90
